createdAt,value
2023-09-26T00:00:24.305Z,985.30
2023-09-26T00:01:23.702Z,985.31
2023-09-26T00:02:23.644Z,985.26
2023-09-26T00:03:23.744Z,985.28
2023-09-26T00:04:23.747Z,985.30
2023-09-26T00:05:23.689Z,985.30
2023-09-26T00:06:23.710Z,985.30
2023-09-26T00:07:23.744Z,985.33
2023-09-26T00:08:23.781Z,985.24
2023-09-26T00:09:23.762Z,985.26
2023-09-26T00:10:23.837Z,985.22
2023-09-26T00:11:23.813Z,985.30
2023-09-26T00:12:23.827Z,985.28
2023-09-26T00:13:23.914Z,985.28
2023-09-26T00:14:23.865Z,985.28
2023-09-26T00:15:23.894Z,985.33
2023-09-26T00:16:24.002Z,985.36
2023-09-26T00:17:23.996Z,985.38
2023-09-26T00:18:23.944Z,985.35
2023-09-26T00:19:23.960Z,985.35
2023-09-26T00:20:23.957Z,985.35
2023-09-26T00:21:23.953Z,985.34
2023-09-26T00:22:24.015Z,985.35
2023-09-26T00:23:24.018Z,985.39
2023-09-26T00:24:24.010Z,985.30
2023-09-26T00:25:24.066Z,985.28
2023-09-26T00:26:24.048Z,985.26
2023-09-26T00:27:24.046Z,985.28
2023-09-26T00:28:24.105Z,985.24
2023-09-26T00:29:24.077Z,985.26
2023-09-26T00:30:24.126Z,985.25
2023-09-26T00:31:24.261Z,985.27
2023-09-26T00:32:24.163Z,985.29
2023-09-26T00:33:24.199Z,985.32
2023-09-26T00:34:24.228Z,985.29
2023-09-26T00:35:24.190Z,985.26
2023-09-26T00:36:24.220Z,985.27
2023-09-26T00:37:24.483Z,985.25
2023-09-26T00:38:24.289Z,985.26
2023-09-26T00:39:24.242Z,985.29
2023-09-26T00:40:24.386Z,985.26
2023-09-26T00:41:24.292Z,985.24
2023-09-26T00:42:24.322Z,985.28
2023-09-26T00:43:24.345Z,985.26
2023-09-26T00:44:24.342Z,985.21
2023-09-26T00:45:24.341Z,985.20
2023-09-26T00:46:24.457Z,985.20
2023-09-26T00:47:24.394Z,985.20
2023-09-26T00:48:24.388Z,985.21
2023-09-26T00:49:24.436Z,985.25
2023-09-26T00:50:24.431Z,985.24
2023-09-26T00:51:24.427Z,985.22
2023-09-26T00:52:24.493Z,985.23
2023-09-26T00:53:24.465Z,985.23
2023-09-26T00:54:24.474Z,985.23
2023-09-26T00:55:24.534Z,985.24
2023-09-26T00:56:24.505Z,985.22
2023-09-26T00:57:24.564Z,985.22
2023-09-26T00:58:24.590Z,985.22
2023-09-26T00:59:24.541Z,985.22
2023-09-26T01:00:24.566Z,985.18
2023-09-26T01:01:24.617Z,985.19
2023-09-26T01:02:24.629Z,985.19
2023-09-26T01:03:24.699Z,985.20
2023-09-26T01:04:24.684Z,985.17
2023-09-26T01:05:24.639Z,985.19
2023-09-26T01:06:24.656Z,985.23
2023-09-26T01:07:24.705Z,985.19
2023-09-26T01:08:24.690Z,985.22
2023-09-26T01:09:24.704Z,985.22
2023-09-26T01:10:24.756Z,985.20
2023-09-26T01:11:24.768Z,985.15
2023-09-26T01:12:24.801Z,985.19
2023-09-26T01:13:24.807Z,985.16
2023-09-26T01:14:24.796Z,985.18
2023-09-26T01:15:24.810Z,985.16
2023-09-26T01:16:24.979Z,985.16
2023-09-26T01:17:24.878Z,985.15
2023-09-26T01:18:24.847Z,985.18
2023-09-26T01:19:24.896Z,985.19
2023-09-26T01:20:24.884Z,985.17
2023-09-26T01:21:24.919Z,985.22
2023-09-26T01:22:24.906Z,985.19
2023-09-26T01:23:24.926Z,985.18
2023-09-26T01:24:24.940Z,985.14
2023-09-26T01:25:25.036Z,985.19
2023-09-26T01:26:25.003Z,985.18
2023-09-26T01:27:24.987Z,985.18
2023-09-26T01:28:25.075Z,985.20
2023-09-26T01:29:25.021Z,985.20
2023-09-26T01:30:25.050Z,985.19
2023-09-26T01:31:25.193Z,985.18
2023-09-26T01:32:25.134Z,985.16
2023-09-26T01:33:25.118Z,985.17
2023-09-26T01:34:25.196Z,985.20
2023-09-26T01:35:25.134Z,985.18
2023-09-26T01:36:25.164Z,985.20
2023-09-26T01:37:25.183Z,985.18
2023-09-26T01:38:25.150Z,985.18
2023-09-26T01:39:25.154Z,985.17
2023-09-26T01:40:25.243Z,985.19
2023-09-26T01:41:25.186Z,985.20
2023-09-26T01:42:25.218Z,985.15
2023-09-26T01:43:25.255Z,985.22
2023-09-26T01:44:25.253Z,985.18
2023-09-26T01:45:25.301Z,985.16
2023-09-26T01:46:25.304Z,985.19
2023-09-26T01:47:25.327Z,985.20
2023-09-26T01:48:25.334Z,985.21
2023-09-26T01:49:25.430Z,985.18
2023-09-26T01:50:25.394Z,985.21
2023-09-26T01:51:25.372Z,985.18
2023-09-26T01:52:25.417Z,985.17
2023-09-26T01:53:25.413Z,985.17
2023-09-26T01:54:25.466Z,985.16
2023-09-26T01:55:25.602Z,985.17
2023-09-26T01:56:25.478Z,985.15
2023-09-26T01:57:25.486Z,985.16
2023-09-26T01:58:25.555Z,985.20
2023-09-26T01:59:25.554Z,985.20
2023-09-26T02:00:25.544Z,985.16
2023-09-26T02:01:25.707Z,985.19
2023-09-26T02:02:25.581Z,985.20
2023-09-26T02:03:25.571Z,985.16
2023-09-26T02:04:25.651Z,985.20
2023-09-26T02:05:25.601Z,985.20
2023-09-26T02:06:25.628Z,985.21
2023-09-26T02:07:25.644Z,985.23
2023-09-26T02:08:25.665Z,985.15
2023-09-26T02:09:25.700Z,985.20
2023-09-26T02:10:25.766Z,985.15
2023-09-26T02:11:25.707Z,985.15
2023-09-26T02:12:25.739Z,985.19
2023-09-26T02:13:25.830Z,985.20
2023-09-26T02:14:25.811Z,985.20
2023-09-26T02:15:25.787Z,985.20
2023-09-26T02:16:25.922Z,985.17
2023-09-26T02:17:25.817Z,985.19
2023-09-26T02:18:25.850Z,985.17
2023-09-26T02:19:25.938Z,985.19
2023-09-26T02:20:25.876Z,985.18
2023-09-26T02:21:25.891Z,985.18
2023-09-26T02:22:25.948Z,985.20
2023-09-26T02:23:25.930Z,985.17
2023-09-26T02:24:25.990Z,985.17
2023-09-26T02:25:26.063Z,985.17
2023-09-26T02:26:25.994Z,985.19
2023-09-26T02:27:26.014Z,985.14
2023-09-26T02:28:26.086Z,985.13
2023-09-26T02:29:26.086Z,985.15
2023-09-26T02:30:26.084Z,985.13
2023-09-26T02:31:26.175Z,985.14
2023-09-26T02:32:26.135Z,985.12
2023-09-26T02:33:26.154Z,985.14
2023-09-26T02:34:26.223Z,985.20
2023-09-26T02:35:26.177Z,985.15
2023-09-26T02:36:26.206Z,985.15
2023-09-26T02:37:26.281Z,985.18
2023-09-26T02:38:26.247Z,985.10
2023-09-26T02:39:26.246Z,985.16
2023-09-26T02:40:26.268Z,985.16
2023-09-26T02:41:26.259Z,985.11
2023-09-26T02:42:26.289Z,985.08
2023-09-26T02:43:26.362Z,985.08
2023-09-26T02:44:26.322Z,985.06
2023-09-26T02:45:26.336Z,985.08
2023-09-26T02:46:26.439Z,985.04
2023-09-26T02:47:26.393Z,985.04
2023-09-26T02:48:26.421Z,984.97
2023-09-26T02:49:26.447Z,984.97
2023-09-26T02:50:26.425Z,984.99
2023-09-26T02:51:26.449Z,985.00
2023-09-26T02:52:26.524Z,985.00
2023-09-26T02:53:26.509Z,984.97
2023-09-26T02:54:26.514Z,985.00
2023-09-26T02:55:26.539Z,985.03
2023-09-26T02:56:26.532Z,985.02
2023-09-26T02:57:26.582Z,985.03
2023-09-26T02:58:26.602Z,984.99
2023-09-26T02:59:26.586Z,985.01
2023-09-26T03:00:26.598Z,985.08
2023-09-26T03:01:26.690Z,985.07
2023-09-26T03:02:26.675Z,985.00
2023-09-26T03:03:26.649Z,984.98
2023-09-26T03:04:26.672Z,985.01
2023-09-26T03:05:26.671Z,985.00
2023-09-26T03:06:26.699Z,984.96
2023-09-26T03:07:26.802Z,984.95
2023-09-26T03:08:26.727Z,984.98
2023-09-26T03:09:26.741Z,984.92
2023-09-26T03:10:26.830Z,984.93
2023-09-26T03:11:26.770Z,984.92
2023-09-26T03:12:26.812Z,984.91
2023-09-26T03:13:26.887Z,984.89
2023-09-26T03:14:26.821Z,984.86
2023-09-26T03:15:26.855Z,984.86
2023-09-26T03:16:27.006Z,984.87
2023-09-26T03:17:26.908Z,984.88
2023-09-26T03:18:26.890Z,984.85
2023-09-26T03:19:26.916Z,984.88
2023-09-26T03:20:26.930Z,984.83
2023-09-26T03:21:26.966Z,984.84
2023-09-26T03:22:27.000Z,984.91
2023-09-26T03:23:26.953Z,984.88
2023-09-26T03:24:26.972Z,984.89
2023-09-26T03:25:27.005Z,984.90
2023-09-26T03:26:27.028Z,984.89
2023-09-26T03:27:27.020Z,984.87
2023-09-26T03:28:27.038Z,984.89
2023-09-26T03:29:27.059Z,984.91
2023-09-26T03:30:27.077Z,984.90
2023-09-26T03:31:27.229Z,984.91
2023-09-26T03:32:27.168Z,984.91
2023-09-26T03:33:27.099Z,984.87
2023-09-26T03:34:27.179Z,984.86
2023-09-26T03:35:27.154Z,984.92
2023-09-26T03:36:27.200Z,984.94
2023-09-26T03:37:27.235Z,984.95
2023-09-26T03:38:27.182Z,984.91
2023-09-26T03:39:27.197Z,984.91
2023-09-26T03:40:27.297Z,984.92
2023-09-26T03:41:27.257Z,984.91
2023-09-26T03:42:27.242Z,984.92
2023-09-26T03:43:27.281Z,984.91
2023-09-26T03:44:27.295Z,984.90
2023-09-26T03:45:27.352Z,984.88
2023-09-26T03:46:27.398Z,984.92
2023-09-26T03:47:27.409Z,984.87
2023-09-26T03:48:27.376Z,984.92
2023-09-26T03:49:27.426Z,984.90
2023-09-26T03:50:27.422Z,984.90
2023-09-26T03:51:27.401Z,984.87
2023-09-26T03:52:27.424Z,984.87
2023-09-26T03:53:27.431Z,984.88
2023-09-26T03:54:27.446Z,984.87
2023-09-26T03:55:27.557Z,984.83
2023-09-26T03:56:27.472Z,984.89
2023-09-26T03:57:27.493Z,984.84
2023-09-26T03:58:27.535Z,984.85
2023-09-26T03:59:27.520Z,984.83
2023-09-26T04:00:27.560Z,984.84
2023-09-26T04:01:27.610Z,984.83
2023-09-26T04:02:27.577Z,984.84
2023-09-26T04:03:27.612Z,984.86
2023-09-26T04:04:27.680Z,984.78
2023-09-26T04:05:27.631Z,984.79
2023-09-26T04:06:27.614Z,984.79
2023-09-26T04:07:27.683Z,984.79
2023-09-26T04:08:27.632Z,984.76
2023-09-26T04:09:27.693Z,984.78
2023-09-26T04:10:27.767Z,984.76
2023-09-26T04:11:27.687Z,984.75
2023-09-26T04:12:27.752Z,984.75
2023-09-26T04:13:27.774Z,984.72
2023-09-26T04:14:27.777Z,984.72
2023-09-26T04:15:27.745Z,984.68
2023-09-26T04:16:27.807Z,984.75
2023-09-26T04:17:27.803Z,984.73
2023-09-26T04:18:27.820Z,984.72
2023-09-26T04:19:27.965Z,984.69
2023-09-26T04:20:37.202Z,984.71
2023-09-26T04:21:27.858Z,984.71
2023-09-26T04:22:27.902Z,984.70
2023-09-26T04:23:27.896Z,984.74
2023-09-26T04:24:27.922Z,984.70
2023-09-26T04:25:27.926Z,984.69
2023-09-26T04:26:27.925Z,984.69
2023-09-26T04:27:27.962Z,984.65
2023-09-26T04:28:28.017Z,984.72
2023-09-26T04:29:28.016Z,984.65
2023-09-26T04:30:28.005Z,984.64
2023-09-26T04:31:28.125Z,984.61
2023-09-26T04:32:28.123Z,984.63
2023-09-26T04:33:28.086Z,984.62
2023-09-26T04:34:28.143Z,984.67
2023-09-26T04:35:28.089Z,984.60
2023-09-26T04:36:28.093Z,984.61
2023-09-26T04:37:28.210Z,984.62
2023-09-26T04:38:28.169Z,984.62
2023-09-26T04:39:28.161Z,984.61
2023-09-26T04:40:28.227Z,984.61
2023-09-26T04:41:28.197Z,984.60
2023-09-26T04:42:28.199Z,984.59
2023-09-26T04:43:28.320Z,984.59
2023-09-26T04:44:28.237Z,984.64
2023-09-26T04:45:28.250Z,984.59
2023-09-26T04:46:28.324Z,984.59
2023-09-26T04:47:28.370Z,984.57
2023-09-26T04:48:28.362Z,984.58
2023-09-26T04:49:28.352Z,984.59
2023-09-26T04:50:28.331Z,984.58
2023-09-26T04:51:28.343Z,984.60
2023-09-26T04:52:28.420Z,984.58
2023-09-26T04:53:28.426Z,984.64
2023-09-26T04:54:28.397Z,984.55
2023-09-26T04:55:28.489Z,984.60
2023-09-26T04:56:28.459Z,984.60
2023-09-26T04:57:28.448Z,984.59
2023-09-26T04:58:28.520Z,984.58
2023-09-26T04:59:28.463Z,984.67
2023-09-26T05:00:28.469Z,984.57
2023-09-26T05:01:28.550Z,984.65
2023-09-26T05:02:28.561Z,984.68
2023-09-26T05:03:28.672Z,984.62
2023-09-26T05:04:28.609Z,984.66
2023-09-26T05:05:28.551Z,984.64
2023-09-26T05:06:28.566Z,984.67
2023-09-26T05:07:28.611Z,984.69
2023-09-26T05:08:28.635Z,984.64
2023-09-26T05:09:28.614Z,984.68
2023-09-26T05:10:28.681Z,984.71
2023-09-26T05:11:28.642Z,984.72
2023-09-26T05:12:28.652Z,984.70
2023-09-26T05:13:28.778Z,984.74
2023-09-26T05:14:28.693Z,984.74
2023-09-26T05:15:28.725Z,984.73
2023-09-26T05:16:28.811Z,984.74
2023-09-26T05:17:28.789Z,984.74
2023-09-26T05:18:28.821Z,984.71
2023-09-26T05:19:28.854Z,984.75
2023-09-26T05:20:28.810Z,984.76
2023-09-26T05:21:28.848Z,984.72
2023-09-26T05:22:28.885Z,984.78
2023-09-26T05:23:28.917Z,984.79
2023-09-26T05:24:28.908Z,984.78
2023-09-26T05:25:28.959Z,984.80
2023-09-26T05:26:28.931Z,984.81
2023-09-26T05:27:28.956Z,984.79
2023-09-26T05:28:29.066Z,984.78
2023-09-26T05:29:29.013Z,984.80
2023-09-26T05:30:29.011Z,984.80
2023-09-26T05:31:29.124Z,984.80
2023-09-26T05:32:29.080Z,984.79
2023-09-26T05:33:29.102Z,984.78
2023-09-26T05:34:29.125Z,984.78
2023-09-26T05:35:29.099Z,984.81
2023-09-26T05:36:29.104Z,984.85
2023-09-26T05:37:29.179Z,984.84
2023-09-26T05:38:29.166Z,984.85
2023-09-26T05:39:29.165Z,984.82
2023-09-26T05:40:29.297Z,984.81
2023-09-26T05:41:29.212Z,984.82
2023-09-26T05:42:29.217Z,984.85
2023-09-26T05:43:29.285Z,984.86
2023-09-26T05:44:29.262Z,984.87
2023-09-26T05:45:29.268Z,984.84
2023-09-26T05:46:29.334Z,984.85
2023-09-26T05:47:29.393Z,984.79
2023-09-26T05:48:29.339Z,984.79
2023-09-26T05:49:29.369Z,984.78
2023-09-26T05:50:29.355Z,984.78
2023-09-26T05:51:29.362Z,984.78
2023-09-26T05:52:29.422Z,984.83
2023-09-26T05:53:29.413Z,984.80
2023-09-26T05:54:32.009Z,984.79
2023-09-26T05:55:29.456Z,984.79
2023-09-26T05:56:29.425Z,984.80
2023-09-26T05:57:29.494Z,984.77
2023-09-26T05:58:29.543Z,984.78
2023-09-26T05:59:29.480Z,984.81
2023-09-26T06:00:29.487Z,984.78
2023-09-26T06:01:29.534Z,984.76
2023-09-26T06:02:29.588Z,984.69
2023-09-26T06:03:29.592Z,984.77
2023-09-26T06:04:29.697Z,984.75
2023-09-26T06:05:29.630Z,984.71
2023-09-26T06:06:29.580Z,984.70
2023-09-26T06:07:29.722Z,984.71
2023-09-26T06:08:29.614Z,984.70
2023-09-26T06:09:29.645Z,984.70
2023-09-26T06:10:29.661Z,984.70
2023-09-26T06:11:29.699Z,984.70
2023-09-26T06:12:29.764Z,984.70
2023-09-26T06:13:29.740Z,984.67
2023-09-26T06:14:29.719Z,984.69
2023-09-26T06:15:29.758Z,984.70
2023-09-26T06:29:37.476Z,984.42
2023-09-26T06:30:38.452Z,984.41
2023-09-26T06:31:38.478Z,984.44
2023-09-26T06:32:38.724Z,984.46
2023-09-26T06:37:34.646Z,984.58
2023-09-26T06:38:35.652Z,984.55
2023-09-26T06:39:35.653Z,984.56
2023-09-26T06:40:35.696Z,984.52
2023-09-26T06:41:35.687Z,984.62
2023-09-26T06:42:38.122Z,984.57
2023-09-26T06:43:35.739Z,984.62
2023-09-26T06:44:35.752Z,984.64
2023-09-26T06:45:35.732Z,984.62
2023-09-26T06:46:35.875Z,984.61
2023-09-26T06:47:35.894Z,984.65
2023-09-26T06:48:35.790Z,984.65
2023-09-26T06:49:35.809Z,984.65
2023-09-26T06:50:35.821Z,984.74
2023-09-26T07:04:40.846Z,984.77
2023-09-26T07:07:00.285Z,984.80
2023-09-26T07:08:01.264Z,984.78
2023-09-26T07:09:01.267Z,984.76
2023-09-26T07:10:01.307Z,984.78
2023-09-26T07:11:01.303Z,984.77
2023-09-26T07:12:01.408Z,984.79
2023-09-26T07:13:01.379Z,984.76
2023-09-26T07:14:01.750Z,984.78
2023-09-26T07:15:01.366Z,984.79
2023-09-26T07:16:01.464Z,984.73
2023-09-26T07:17:01.468Z,984.78
2023-09-26T07:18:01.455Z,984.80
2023-09-26T07:19:01.503Z,984.80
2023-09-26T07:20:01.482Z,984.83
2023-09-26T07:21:01.453Z,984.80
2023-09-26T07:22:01.578Z,984.82
2023-09-26T07:23:01.510Z,984.80
2023-09-26T07:24:01.580Z,984.79
2023-09-26T07:25:01.621Z,984.78
2023-09-26T07:26:01.559Z,984.81
2023-09-26T07:27:01.588Z,984.80
2023-09-26T07:28:01.602Z,984.81
2023-09-26T07:29:01.609Z,984.83
2023-09-26T07:30:01.614Z,984.80
2023-09-26T07:31:01.747Z,984.85
2023-09-26T07:32:01.715Z,984.82
2023-09-26T07:33:01.706Z,984.85
2023-09-26T07:34:01.704Z,984.81
2023-09-26T07:35:01.717Z,984.77
2023-09-26T07:36:01.768Z,984.78
2023-09-26T07:37:01.727Z,984.80
2023-09-26T07:38:01.865Z,984.82
2023-09-26T07:39:01.774Z,984.82
2023-09-26T07:40:02.005Z,984.85
2023-09-26T07:41:01.979Z,984.85
2023-09-26T07:42:01.809Z,984.83
2023-09-26T07:43:01.855Z,984.86
2023-09-26T07:44:01.835Z,984.84
2023-09-26T07:45:01.887Z,984.88
2023-09-26T07:46:02.009Z,984.87
2023-09-26T07:47:01.940Z,984.85
2023-09-26T07:48:01.942Z,984.86
2023-09-26T07:49:01.984Z,984.84
2023-09-26T07:50:01.943Z,984.84
2023-09-26T07:51:02.247Z,984.87
2023-09-26T07:52:01.991Z,984.83
2023-09-26T07:53:01.974Z,984.86
2023-09-26T07:54:01.997Z,984.88
2023-09-26T07:55:02.078Z,984.89
2023-09-26T07:56:02.099Z,984.88
2023-09-26T07:57:02.027Z,984.88
2023-09-26T07:58:02.123Z,984.87
2023-09-26T07:59:02.079Z,984.93
2023-09-26T08:00:02.082Z,984.87
2023-09-26T08:01:02.505Z,984.85
2023-09-26T08:02:02.132Z,984.92
2023-09-26T08:03:02.171Z,984.88
2023-09-26T08:04:02.198Z,984.88
2023-09-26T08:05:02.240Z,984.93
2023-09-26T08:06:02.487Z,984.92
2023-09-26T08:07:02.235Z,984.91
2023-09-26T08:08:02.239Z,984.91
2023-09-26T08:10:58.197Z,984.89
2023-09-26T08:11:59.153Z,984.87
2023-09-26T08:12:59.242Z,984.82
2023-09-26T08:14:10.628Z,984.82
2023-09-26T08:14:59.248Z,984.81
2023-09-26T08:15:59.281Z,984.81
2023-09-26T08:16:59.255Z,984.80
2023-09-26T08:17:59.257Z,984.82
2023-09-26T08:30:14.812Z,984.85
2023-09-26T08:31:15.875Z,984.86
2023-09-26T08:32:15.847Z,984.86
2023-09-26T08:33:15.913Z,984.87
2023-09-26T08:34:15.920Z,984.84
2023-09-26T08:35:18.014Z,984.86
2023-09-26T08:36:15.891Z,984.83
2023-09-26T08:37:15.941Z,984.79
2023-09-26T08:38:15.941Z,984.78
2023-09-26T08:41:11.958Z,984.81
2023-09-26T08:42:12.964Z,984.81
2023-09-26T08:43:12.967Z,984.77
2023-09-26T08:44:12.987Z,984.84
2023-09-26T08:47:30.922Z,984.84
2023-09-26T08:48:31.880Z,984.79
2023-09-26T08:49:34.257Z,984.81
2023-09-26T08:50:31.910Z,984.84
2023-09-26T08:53:41.368Z,984.77
2023-09-26T08:54:42.384Z,984.83
2023-09-26T08:55:42.374Z,984.77
2023-09-26T08:56:44.636Z,984.80
2023-09-26T08:57:42.404Z,984.80
2023-09-26T08:58:42.433Z,984.81
2023-09-26T08:59:42.476Z,984.78
2023-09-26T09:00:42.480Z,984.78
2023-09-26T09:01:42.588Z,984.79
2023-09-26T09:02:42.582Z,984.80
2023-09-26T09:03:42.507Z,984.78
2023-09-26T09:04:42.672Z,984.81
2023-09-26T09:05:42.533Z,984.78
2023-09-26T09:06:42.529Z,984.80
2023-09-26T09:07:42.565Z,984.76
2023-09-26T09:08:42.567Z,984.76
2023-09-26T09:09:42.747Z,984.76
2023-09-26T09:10:42.604Z,984.73
2023-09-26T09:11:42.650Z,984.70
2023-09-26T09:12:42.633Z,984.71
2023-09-26T09:13:42.651Z,984.70
2023-09-26T09:14:42.686Z,984.72
2023-09-26T09:15:42.699Z,984.71
2023-09-26T09:16:43.646Z,984.70
2023-09-26T09:17:45.140Z,984.70
2023-09-26T09:18:42.776Z,984.72
2023-09-26T09:19:46.724Z,984.66
2023-09-26T09:20:45.395Z,984.67
2023-09-26T09:21:42.883Z,984.65
2023-09-26T09:22:42.866Z,984.62
2023-09-26T09:23:42.952Z,984.66
2023-09-26T09:24:42.865Z,984.62
2023-09-26T09:25:42.850Z,984.61
2023-09-26T09:26:42.919Z,984.58
2023-09-26T09:27:42.969Z,984.58
2023-09-26T09:30:16.421Z,984.56
2023-09-26T09:35:27.862Z,984.53
2023-09-26T09:36:28.851Z,984.57
2023-09-26T09:39:08.677Z,984.55
2023-09-26T09:41:49.222Z,984.47
2023-09-26T09:42:50.475Z,984.47
2023-09-26T09:43:50.719Z,984.42
2023-09-26T09:49:11.045Z,984.33
2023-09-26T09:50:11.976Z,984.35
2023-09-26T09:51:12.427Z,984.35
2023-09-26T09:52:11.914Z,984.35
2023-09-26T09:53:11.937Z,984.35
2023-09-26T09:54:11.966Z,984.29
2023-09-26T09:55:11.995Z,984.35
2023-09-26T09:56:12.113Z,984.34
2023-09-26T09:57:11.974Z,984.29
2023-09-26T09:58:12.065Z,984.33
2023-09-26T09:59:12.056Z,984.30
2023-09-26T10:00:12.036Z,984.32
2023-09-26T10:01:12.268Z,984.33
2023-09-26T10:02:12.296Z,984.35
2023-09-26T10:03:12.395Z,984.28
2023-09-26T10:04:13.017Z,984.33
2023-09-26T10:05:12.311Z,984.32
2023-09-26T10:06:12.591Z,984.26
2023-09-26T10:07:13.142Z,984.31
2023-09-26T10:08:12.303Z,984.28
2023-09-26T10:09:12.397Z,984.30
2023-09-26T10:10:12.282Z,984.31
2023-09-26T10:11:12.327Z,984.28
2023-09-26T10:12:14.139Z,984.25
2023-09-26T10:13:35.176Z,984.24
2023-09-26T10:14:12.297Z,984.29
2023-09-26T10:15:12.259Z,984.24
2023-09-26T10:16:13.534Z,984.24
2023-09-26T10:17:12.393Z,984.22
2023-09-26T10:18:12.399Z,984.17
2023-09-26T10:19:12.359Z,984.20
2023-09-26T10:21:12.387Z,984.13
2023-09-26T10:22:12.434Z,984.14
2023-09-26T10:23:12.399Z,984.11
2023-09-26T10:24:12.416Z,984.13
2023-09-26T10:25:12.468Z,984.09
2023-09-26T10:26:12.435Z,984.11
2023-09-26T13:42:29.287Z,982.49
2023-09-26T13:43:30.294Z,982.40
2023-09-26T13:44:30.274Z,982.44
2023-09-26T13:45:30.301Z,982.44
2023-09-26T13:46:30.354Z,982.43
2023-09-26T13:47:30.523Z,982.43
2023-09-26T13:48:30.456Z,982.40
2023-09-26T13:49:30.437Z,982.39
2023-09-26T13:50:30.398Z,982.41
2023-09-26T13:51:30.443Z,982.46
2023-09-26T13:52:30.484Z,982.42
2023-09-26T13:53:30.442Z,982.39
2023-09-26T13:54:30.468Z,982.44
2023-09-26T13:55:30.555Z,982.44
2023-09-26T13:56:30.540Z,982.44
2023-09-26T13:57:30.519Z,982.42
2023-09-26T13:58:30.541Z,982.37
2023-09-26T13:59:30.580Z,982.39
2023-09-26T14:00:30.587Z,982.38
2023-09-26T14:01:30.663Z,982.44
2023-09-26T14:02:30.693Z,982.38
2023-09-26T14:03:30.642Z,982.42
2023-09-26T14:04:30.720Z,982.40
2023-09-26T14:05:30.749Z,982.43
2023-09-26T14:06:30.854Z,982.38
2023-09-26T14:07:30.683Z,982.36
2023-09-26T14:08:30.716Z,982.33
2023-09-26T14:09:30.717Z,982.40
2023-09-26T14:10:30.739Z,982.39
2023-09-26T14:11:30.783Z,982.35
2023-09-26T14:12:30.770Z,982.34
2023-09-26T14:13:30.806Z,982.36
2023-09-26T14:14:31.000Z,982.36
2023-09-26T14:15:30.855Z,982.36
2023-09-26T14:16:32.849Z,982.35
2023-09-26T14:17:30.980Z,982.34
2023-09-26T14:18:30.883Z,982.32
2023-09-26T14:19:30.934Z,982.30
2023-09-26T14:20:30.941Z,982.34
2023-09-26T14:21:30.923Z,982.33
2023-09-26T14:22:30.920Z,982.32
2023-09-26T14:23:30.945Z,982.32
2023-09-26T14:24:38.410Z,982.29
2023-09-26T14:25:31.001Z,982.30
2023-09-26T14:26:31.025Z,982.25
2023-09-26T14:27:31.030Z,982.30
2023-09-26T14:28:31.023Z,982.28
2023-09-26T14:29:31.033Z,982.30
2023-09-26T14:30:31.074Z,982.29
2023-09-26T14:31:31.066Z,982.27
2023-09-26T14:32:31.187Z,982.31
2023-09-26T14:33:31.296Z,982.28
2023-09-26T14:34:31.251Z,982.29
2023-09-26T14:35:31.206Z,982.29
2023-09-26T14:36:31.142Z,982.31
2023-09-26T14:37:31.146Z,982.33
2023-09-26T14:38:31.153Z,982.32
2023-09-26T15:18:15.641Z,982.28
2023-09-26T15:19:16.656Z,982.30
2023-09-26T18:24:24.651Z,983.85
2023-09-26T18:25:25.746Z,983.84
2023-09-26T18:26:25.661Z,983.84
2023-09-26T18:27:25.699Z,983.84
2023-09-26T18:28:25.733Z,983.86
2023-09-26T18:29:25.730Z,983.92
2023-09-26T18:30:27.655Z,983.92
2023-09-26T18:31:25.858Z,983.93
2023-09-26T18:32:25.896Z,983.97
2023-09-26T18:33:25.777Z,983.93
2023-09-26T18:34:25.772Z,983.98
2023-09-26T18:35:25.796Z,983.99
2023-09-26T18:36:25.795Z,983.99
2023-09-26T18:37:25.869Z,984.01
2023-09-26T18:38:25.862Z,984.03
2023-09-26T18:39:25.851Z,984.04
2023-09-26T18:40:25.878Z,984.02
2023-09-26T18:41:25.939Z,984.07
2023-09-26T18:42:25.926Z,984.04
2023-09-26T18:43:25.928Z,984.13
2023-09-26T18:44:25.991Z,984.08
2023-09-26T18:45:25.963Z,984.14
2023-09-26T18:46:26.036Z,984.13
2023-09-26T18:47:26.013Z,984.17
2023-09-26T18:48:26.005Z,984.14
2023-09-26T18:49:26.020Z,984.17
2023-09-26T18:50:26.035Z,984.15
2023-09-26T18:51:26.087Z,984.20
2023-09-26T18:52:26.073Z,984.19
2023-09-26T18:53:26.200Z,984.15
2023-09-26T18:54:26.115Z,984.20
2023-09-26T18:55:26.144Z,984.20
2023-09-26T18:56:26.159Z,984.19
2023-09-26T18:57:26.160Z,984.18
2023-09-26T18:58:26.169Z,984.15
2023-09-26T18:59:26.227Z,984.16
2023-09-26T19:00:26.212Z,984.15
2023-09-26T19:01:26.318Z,984.16
2023-09-26T19:02:26.400Z,984.15
2023-09-26T19:03:26.392Z,984.17
2023-09-26T19:04:26.496Z,984.14
2023-09-26T19:05:26.488Z,984.13
2023-09-26T19:06:26.302Z,984.15
2023-09-26T19:07:26.285Z,984.17
2023-09-26T19:08:26.301Z,984.20
2023-09-26T19:09:26.313Z,984.21
2023-09-26T19:10:26.332Z,984.25
2023-09-26T19:11:26.380Z,984.25
2023-09-26T19:12:26.364Z,984.23
2023-09-26T19:13:26.401Z,984.24
2023-09-26T19:14:26.393Z,984.26
2023-09-26T19:15:26.418Z,984.29
2023-09-26T19:16:26.488Z,984.25
2023-09-26T19:18:26.469Z,984.30
2023-09-26T19:19:26.491Z,984.36
2023-09-26T19:20:26.499Z,984.35
2023-09-26T19:21:26.567Z,984.28
2023-09-26T19:22:26.535Z,984.30
2023-09-26T19:23:26.574Z,984.33
2023-09-26T19:24:26.558Z,984.33
2023-09-26T19:25:26.578Z,984.36
2023-09-26T19:26:26.643Z,984.34
2023-09-26T19:27:26.611Z,984.38
2023-09-26T19:28:26.650Z,984.36
2023-09-26T19:29:26.662Z,984.41
2023-09-26T19:30:26.649Z,984.43
2023-09-26T19:31:26.813Z,984.38
2023-09-26T19:32:26.731Z,984.39
2023-09-26T19:33:26.699Z,984.42
2023-09-26T19:34:26.703Z,984.47
2023-09-26T19:35:26.731Z,984.47
2023-09-26T19:36:26.755Z,984.47
2023-09-26T19:37:26.753Z,984.50
2023-09-26T19:38:26.798Z,984.48
2023-09-26T19:39:26.785Z,984.52
2023-09-26T19:40:26.804Z,984.45
2023-09-26T19:41:26.903Z,984.54
2023-09-26T19:42:26.830Z,984.57
2023-09-26T19:43:26.857Z,984.57
2023-09-26T19:44:26.870Z,984.56
2023-09-26T19:45:26.890Z,984.58
2023-09-26T19:46:26.958Z,984.59
2023-09-26T19:47:27.059Z,984.57
2023-09-26T19:48:26.956Z,984.62
2023-09-26T19:49:26.942Z,984.58
2023-09-26T19:50:27.022Z,984.55
2023-09-26T19:51:27.005Z,984.58
2023-09-26T19:52:26.953Z,984.55
2023-09-26T19:53:26.980Z,984.56
2023-09-26T19:54:26.993Z,984.53
2023-09-26T19:55:27.056Z,984.55
2023-09-26T19:56:27.066Z,984.52
2023-09-26T19:57:27.048Z,984.55
2023-09-26T19:58:27.082Z,984.53
2023-09-26T19:59:27.149Z,984.57
2023-09-26T20:00:27.105Z,984.54
2023-09-26T20:01:27.217Z,984.56
2023-09-26T20:02:27.179Z,984.55
2023-09-26T20:03:27.260Z,984.55
2023-09-26T20:04:27.164Z,984.57
2023-09-26T20:05:27.191Z,984.55
2023-09-26T20:06:27.219Z,984.56
2023-09-26T20:07:27.217Z,984.56
2023-09-26T20:08:27.275Z,984.55
2023-09-26T20:09:27.251Z,984.59
2023-09-26T20:10:27.254Z,984.60
2023-09-26T20:11:27.307Z,984.58
2023-09-26T20:12:27.283Z,984.58
2023-09-26T20:13:27.308Z,984.59
2023-09-26T20:14:27.327Z,984.62
2023-09-26T20:15:27.370Z,984.58
2023-09-26T20:16:27.415Z,984.61
2023-09-26T20:17:27.438Z,984.59
2023-09-26T20:18:27.387Z,984.61
2023-09-26T20:19:27.408Z,984.61
2023-09-26T20:20:27.458Z,984.58
2023-09-26T20:21:27.450Z,984.57
2023-09-26T20:22:27.456Z,984.53
2023-09-26T20:23:27.470Z,984.58
2023-09-26T20:24:27.480Z,984.58
2023-09-26T20:25:27.538Z,984.58
2023-09-26T20:26:27.496Z,984.61
2023-09-26T20:27:27.527Z,984.60
2023-09-26T20:28:27.533Z,984.62
2023-09-26T20:29:27.594Z,984.62
2023-09-26T20:30:27.599Z,984.59
2023-09-26T20:31:27.588Z,984.62
2023-09-26T20:32:27.634Z,984.63
2023-09-26T20:33:27.593Z,984.63